createdAt,value
2023-05-23T05:53:08.855Z,14.85
2023-05-23T05:54:10.890Z,14.94
2023-05-23T08:24:30.922Z,15.15
2023-05-23T08:26:47.177Z,15.41
2023-05-23T08:33:25.197Z,15.21
2023-05-23T08:35:47.535Z,15.21
2023-05-23T08:38:07.945Z,15.54
2023-05-23T08:40:36.665Z,15.30
2023-05-23T08:43:05.965Z,15.22
2023-05-23T08:45:41.223Z,15.32
2023-05-23T09:05:59.527Z,15.38
2023-05-23T09:08:19.329Z,15.19
2023-05-23T09:09:20.739Z,15.41
2023-05-23T09:12:04.167Z,15.88
2023-05-23T09:13:05.619Z,15.71
2023-05-23T09:15:34.470Z,15.48
2023-05-23T09:18:04.732Z,15.49
2023-05-23T09:31:41.945Z,15.54
2023-05-23T09:32:56.915Z,15.68
2023-05-23T09:33:59.887Z,15.71
2023-05-23T09:36:30.237Z,15.84
2023-05-23T09:37:35.964Z,16.02
2023-05-23T09:38:46.499Z,16.06
2023-05-23T09:39:48.853Z,16.06
2023-05-23T09:40:56.048Z,16.22
2023-05-23T09:41:59.740Z,16.31
2023-05-23T09:43:05.643Z,15.96
2023-05-23T09:44:09.555Z,16.07
2023-05-23T09:45:15.529Z,16.01
2023-05-23T09:46:17.059Z,15.99
2023-05-23T09:47:18.812Z,16.29
2023-05-23T09:48:20.359Z,16.28
2023-05-23T09:49:22.368Z,16.30
2023-05-23T09:50:25.202Z,16.65
2023-05-23T09:51:26.668Z,16.63
2023-05-23T09:52:36.167Z,16.83
2023-05-23T09:53:37.586Z,16.95
2023-05-23T09:54:43.375Z,17.08
2023-05-23T09:55:44.850Z,17.31
2023-05-23T09:56:46.663Z,17.45
2023-05-23T09:57:52.939Z,17.61
2023-05-23T09:58:55.449Z,17.93
2023-05-23T10:00:00.833Z,18.02
2023-05-23T10:01:03.775Z,18.15
2023-05-23T10:02:08.402Z,18.00
2023-05-23T10:03:14.400Z,18.41
2023-05-23T10:04:21.368Z,18.96
2023-05-23T10:05:50.169Z,19.30
2023-05-23T10:06:56.919Z,19.50
2023-05-23T10:08:05.098Z,19.22
2023-05-23T10:09:08.670Z,19.56
2023-05-23T10:10:12.726Z,19.40
2023-05-23T10:11:14.126Z,19.61
2023-05-23T10:12:50.848Z,19.33
2023-05-23T10:13:53.302Z,18.81
2023-05-23T10:15:08.909Z,18.70
2023-05-23T10:16:27.014Z,18.60
2023-05-23T10:17:46.882Z,18.55
2023-05-23T10:18:55.370Z,18.59
2023-05-23T10:20:12.272Z,18.73
2023-05-23T10:21:24.507Z,18.55
2023-05-23T10:22:26.711Z,18.38
2023-05-23T10:23:29.749Z,18.31
2023-05-23T10:24:31.550Z,18.31
2023-05-23T10:25:35.718Z,18.54
2023-05-23T10:26:37.294Z,18.71
2023-05-23T10:27:39.762Z,18.83
2023-05-23T10:28:42.116Z,18.84
2023-05-23T10:29:44.729Z,18.55
2023-05-23T10:30:46.168Z,18.37
2023-05-23T10:31:48.749Z,18.37
2023-05-23T10:32:51.216Z,18.41
2023-05-23T10:34:08.657Z,18.55
2023-05-23T10:35:13.843Z,18.67
2023-05-23T10:36:27.786Z,18.54
2023-05-23T10:37:39.090Z,18.61
2023-05-23T10:38:58.700Z,18.35
2023-05-23T10:40:18.859Z,19.33
2023-05-23T10:41:26.126Z,19.76
2023-05-23T10:42:42.625Z,19.96
2023-05-23T10:44:12.775Z,19.82
2023-05-23T10:45:18.410Z,19.95
2023-05-23T10:46:21.813Z,20.19
2023-05-23T10:47:30.231Z,19.74
2023-05-23T10:48:35.433Z,20.01
2023-05-23T10:49:41.331Z,20.42
2023-05-23T10:50:43.096Z,20.53
2023-05-23T10:51:50.923Z,20.30
2023-05-23T10:52:53.388Z,19.92
2023-05-23T10:53:55.036Z,19.90
2023-05-23T10:54:56.553Z,20.14
2023-05-23T10:55:58.367Z,19.58
2023-05-23T10:57:06.158Z,19.05
2023-05-23T10:58:20.521Z,19.88
2023-05-23T10:59:23.289Z,19.66
2023-05-23T11:00:25.164Z,19.70
2023-05-23T11:01:27.331Z,20.00
2023-05-23T11:02:29.669Z,20.34
2023-05-23T11:03:36.611Z,20.91
2023-05-23T11:04:38.182Z,20.52
2023-05-23T11:05:48.235Z,20.55
2023-05-23T11:06:50.927Z,20.33
2023-05-23T11:08:08.589Z,20.00
2023-05-23T11:09:19.398Z,19.64
2023-05-23T11:10:21.421Z,20.05
2023-05-23T11:11:23.027Z,19.85
2023-05-23T11:12:41.323Z,19.62
2023-05-23T11:14:00.858Z,19.45
2023-05-23T11:15:02.442Z,20.01
2023-05-23T11:16:40.148Z,19.71
2023-05-23T11:17:51.089Z,19.84
2023-05-23T11:18:52.825Z,19.95
2023-05-23T11:20:07.085Z,20.09
2023-05-23T11:21:09.882Z,20.44
2023-05-23T11:24:52.237Z,19.97
2023-05-23T11:26:01.727Z,19.99
2023-05-23T11:29:19.691Z,19.98
2023-05-23T11:30:21.414Z,20.03
2023-05-23T11:31:24.295Z,19.84
2023-05-23T11:32:28.507Z,19.40
2023-05-23T11:33:30.363Z,19.37
2023-05-23T11:34:32.321Z,19.34
2023-05-23T11:35:34.692Z,19.18
2023-05-23T11:36:36.320Z,19.15
2023-05-23T11:37:40.815Z,18.87
2023-05-23T11:38:42.523Z,18.85
2023-05-23T11:39:43.986Z,18.80
2023-05-23T11:40:48.934Z,19.10
2023-05-23T11:41:59.101Z,19.05
2023-05-23T11:43:02.637Z,18.97
2023-05-23T11:44:12.135Z,18.55
2023-05-23T11:45:13.706Z,18.30
2023-05-23T11:46:15.863Z,18.39
2023-05-23T11:47:17.879Z,18.68
2023-05-23T11:48:19.317Z,18.43
2023-05-23T11:49:20.802Z,18.32
2023-05-23T11:50:22.270Z,18.85
2023-05-23T11:51:23.811Z,19.08
2023-05-23T11:52:32.209Z,18.92
2023-05-23T11:53:33.683Z,18.99
2023-05-23T11:54:35.224Z,18.96
2023-05-23T11:55:40.295Z,19.02
2023-05-23T11:56:41.760Z,18.71
2023-05-23T11:57:43.843Z,18.73
2023-05-23T11:58:45.481Z,19.24
2023-05-23T11:59:47.062Z,19.58
2023-05-23T12:00:48.523Z,19.87
2023-05-23T12:01:50.044Z,20.13
2023-05-23T12:02:51.612Z,19.94
2023-05-23T12:03:53.217Z,20.61
2023-05-23T12:04:54.835Z,21.29
2023-05-23T12:05:56.409Z,21.78
2023-05-23T12:06:57.965Z,22.00
2023-05-23T12:07:59.818Z,21.96
2023-05-23T12:09:01.334Z,21.85
2023-05-23T12:10:06.023Z,21.33
2023-05-23T12:11:07.818Z,21.00
2023-05-23T12:12:09.692Z,20.76
2023-05-23T12:13:11.184Z,20.76
2023-05-23T12:14:17.692Z,20.75
2023-05-23T12:15:19.091Z,20.42
2023-05-23T12:16:21.229Z,20.47
2023-05-23T12:17:22.822Z,20.58
2023-05-23T12:18:25.528Z,20.24
2023-05-23T12:19:27.078Z,20.46
2023-05-23T12:20:28.580Z,19.78
2023-05-23T12:21:44.718Z,19.85
2023-05-23T12:22:46.185Z,19.99
2023-05-23T12:23:47.551Z,19.99
2023-05-23T12:24:49.063Z,19.98
2023-05-23T12:25:54.123Z,20.06
2023-05-23T12:26:59.070Z,19.96
2023-05-23T12:28:00.650Z,19.97
2023-05-23T12:29:02.735Z,19.94
2023-05-23T12:30:11.796Z,19.92
2023-05-23T12:31:17.220Z,20.13
2023-05-23T12:32:18.670Z,20.47
2023-05-23T12:33:20.194Z,20.05
2023-05-23T12:34:21.984Z,19.77
2023-05-23T12:35:25.962Z,20.01
2023-05-23T12:36:32.262Z,19.86
2023-05-23T12:37:33.996Z,19.89
2023-05-23T12:38:38.168Z,20.18
2023-05-23T12:39:39.863Z,19.89
2023-05-23T12:40:41.401Z,19.98
2023-05-23T12:41:44.106Z,20.09
2023-05-23T12:42:53.756Z,20.68
2023-05-23T12:43:56.834Z,20.90
2023-05-23T12:44:58.229Z,21.56
2023-05-23T12:45:59.677Z,21.83
2023-05-23T12:47:01.422Z,21.80
2023-05-23T12:48:07.297Z,21.61
2023-05-23T12:49:08.800Z,21.98
2023-05-23T12:50:11.734Z,22.17
2023-05-23T12:51:13.988Z,22.44
2023-05-23T12:52:15.537Z,22.47
2023-05-23T12:53:16.985Z,22.72
2023-05-23T12:54:18.708Z,22.91
2023-05-23T12:55:20.231Z,23.20
2023-05-23T12:56:22.523Z,22.72
2023-05-23T12:57:24.035Z,22.53
2023-05-23T12:58:25.610Z,21.92
2023-05-23T12:59:27.397Z,21.89
2023-05-23T13:00:28.822Z,21.90
2023-05-23T13:01:30.912Z,22.05
2023-05-23T13:02:32.538Z,21.51
2023-05-23T13:03:34.055Z,21.85
2023-05-23T13:04:35.623Z,21.65
2023-05-23T13:05:37.230Z,21.65
2023-05-23T13:06:38.658Z,21.69
2023-05-23T13:07:40.056Z,20.97
2023-05-23T13:08:41.793Z,20.87
2023-05-23T13:09:43.258Z,20.62
2023-05-23T13:10:44.839Z,20.11
2023-05-23T13:11:46.626Z,20.27
2023-05-23T13:12:48.026Z,19.94
2023-05-23T13:13:50.902Z,19.83
2023-05-23T13:14:52.403Z,19.60
2023-05-23T13:15:54.151Z,19.64
2023-05-23T13:16:55.846Z,19.57
2023-05-23T13:17:58.020Z,19.51
2023-05-23T13:18:59.710Z,19.47
2023-05-23T13:20:01.783Z,19.46
2023-05-23T13:21:03.618Z,19.71
2023-05-23T13:22:10.240Z,19.62
2023-05-23T13:23:11.829Z,19.50
2023-05-23T13:24:13.316Z,19.53
2023-05-23T13:25:14.784Z,19.21
2023-05-23T13:26:16.370Z,19.27
2023-05-23T13:27:18.278Z,19.41
2023-05-23T13:28:19.760Z,19.69
2023-05-23T13:29:21.833Z,19.60
2023-05-23T13:30:24.350Z,19.31
2023-05-23T13:31:25.923Z,19.11
2023-05-23T13:32:27.518Z,19.02
2023-05-23T13:33:29.115Z,19.05
2023-05-23T13:34:30.614Z,19.27
2023-05-23T13:35:32.029Z,19.11
2023-05-23T13:36:33.904Z,19.22
2023-05-23T13:37:35.325Z,19.18
2023-05-23T13:38:37.407Z,19.19
2023-05-23T13:39:39.095Z,18.98
2023-05-23T13:40:40.769Z,19.04
2023-05-23T13:41:42.527Z,19.21
2023-05-23T13:42:44.702Z,19.15
2023-05-23T13:43:46.251Z,19.20
2023-05-23T13:44:47.680Z,19.20
2023-05-23T13:45:49.376Z,18.94
2023-05-23T13:46:50.878Z,19.02
2023-05-23T13:47:52.641Z,18.95
2023-05-23T13:48:54.214Z,19.04
2023-05-23T13:49:55.574Z,19.22
2023-05-23T13:50:57.136Z,19.22
2023-05-23T13:51:58.613Z,19.33
2023-05-23T13:53:00.176Z,19.61
2023-05-23T13:54:01.644Z,19.72
2023-05-23T13:55:04.896Z,19.87
2023-05-23T13:56:06.346Z,19.50
2023-05-23T13:57:07.832Z,19.28
2023-05-23T13:58:09.676Z,19.40
2023-05-23T13:59:11.184Z,19.56
2023-05-23T14:00:13.351Z,19.45
2023-05-23T14:01:14.822Z,19.36
2023-05-23T14:02:16.704Z,19.32
2023-05-23T14:03:19.611Z,19.28
2023-05-23T14:04:21.324Z,19.49
2023-05-23T14:05:22.826Z,19.79
2023-05-23T14:06:24.432Z,20.03
2023-05-23T14:07:25.974Z,20.17
2023-05-23T14:08:27.403Z,20.19
2023-05-23T14:09:28.865Z,20.52
2023-05-23T14:10:30.726Z,20.75
2023-05-23T14:11:32.939Z,20.84
2023-05-23T14:12:34.398Z,21.04
2023-05-23T14:13:35.872Z,21.28
2023-05-23T14:14:40.502Z,21.82
2023-05-23T14:15:42.253Z,21.68
2023-05-23T14:16:44.277Z,21.82
2023-05-23T14:17:45.841Z,21.94
2023-05-23T14:18:47.603Z,21.72
2023-05-23T14:19:49.136Z,21.84
2023-05-23T14:20:50.788Z,22.00
2023-05-23T14:21:52.189Z,21.66
2023-05-23T14:22:53.630Z,21.95
2023-05-23T14:23:55.053Z,21.88
2023-05-23T14:24:58.131Z,21.85
2023-05-23T14:25:59.580Z,21.58
2023-05-23T14:27:02.448Z,21.60
2023-05-23T14:28:03.960Z,21.71
2023-05-23T14:29:05.433Z,21.53
2023-05-23T14:30:07.741Z,21.66
2023-05-23T14:31:09.278Z,21.45
2023-05-23T14:32:10.946Z,21.28
2023-05-23T14:33:12.670Z,21.04
2023-05-23T14:34:14.166Z,21.24
2023-05-23T14:35:15.814Z,21.08
2023-05-23T14:36:17.826Z,20.65
2023-05-23T14:37:19.320Z,20.91
2023-05-23T14:38:20.806Z,21.30
2023-05-23T14:39:22.245Z,20.94
2023-05-23T14:40:23.749Z,20.62
2023-05-23T14:41:25.182Z,20.50
2023-05-23T14:42:26.641Z,20.16
2023-05-23T14:43:28.232Z,20.93
2023-05-23T14:44:29.787Z,21.47
2023-05-23T14:45:31.658Z,21.24
2023-05-23T14:46:33.446Z,21.89
2023-05-23T14:47:35.738Z,22.13
2023-05-23T14:48:37.578Z,21.91
2023-05-23T14:49:39.072Z,21.96
2023-05-23T14:50:40.765Z,21.77
2023-05-23T14:51:48.988Z,22.01
2023-05-23T14:52:52.263Z,22.07
2023-05-23T14:53:53.780Z,21.86
2023-05-23T14:54:55.237Z,21.60
2023-05-23T14:55:56.850Z,21.93
2023-05-23T14:56:58.333Z,21.88
2023-05-23T14:57:59.957Z,22.14
2023-05-23T14:59:02.438Z,22.09
2023-05-23T15:00:05.823Z,21.91
2023-05-23T15:01:07.427Z,22.15
2023-05-23T15:02:09.033Z,22.11
2023-05-23T15:03:11.477Z,22.12
2023-05-23T15:04:13.845Z,22.30
2023-05-23T15:05:15.623Z,22.32
2023-05-23T15:06:17.227Z,21.99
2023-05-23T15:07:18.727Z,21.61
2023-05-23T15:08:20.213Z,21.34
2023-05-23T15:09:21.923Z,21.13
2023-05-23T15:10:23.419Z,20.82
2023-05-23T15:11:26.682Z,20.89
2023-05-23T15:12:29.034Z,20.89
2023-05-23T15:13:30.729Z,21.14
2023-05-23T15:14:32.223Z,21.35
2023-05-23T15:15:37.592Z,21.78
2023-05-23T15:16:39.147Z,21.74
2023-05-23T15:17:40.662Z,21.56
2023-05-23T15:18:42.387Z,21.84
2023-05-23T15:19:44.660Z,21.77
2023-05-23T15:20:46.462Z,21.40
2023-05-23T15:21:50.896Z,21.09
2023-05-23T15:22:52.736Z,20.81
2023-05-23T15:23:54.575Z,20.47
2023-05-23T15:24:59.615Z,20.50
2023-05-23T15:26:01.282Z,20.11
2023-05-23T15:27:18.778Z,20.52
2023-05-23T15:28:21.448Z,20.64
2023-05-23T15:29:25.338Z,20.75
2023-05-23T15:30:26.937Z,21.06
2023-05-23T15:31:28.516Z,21.12
2023-05-23T15:32:30.073Z,20.79
2023-05-23T15:33:32.357Z,20.58
2023-05-23T15:34:34.020Z,20.59
2023-05-23T15:35:35.587Z,20.58
2023-05-23T15:36:37.339Z,20.83
2023-05-23T15:37:40.021Z,20.80
2023-05-23T15:38:41.475Z,20.77
2023-05-23T15:39:42.966Z,21.00
2023-05-23T15:40:44.609Z,20.49
2023-05-23T15:41:46.787Z,20.12
2023-05-23T15:42:48.316Z,20.08
2023-05-23T15:43:49.862Z,19.90
2023-05-23T15:44:51.459Z,19.88
2023-05-23T15:45:53.089Z,19.76
2023-05-23T15:46:54.650Z,20.03
2023-05-23T15:47:56.105Z,20.38
2023-05-23T15:49:05.069Z,20.71
2023-05-23T15:50:15.167Z,21.11
2023-05-23T15:51:16.615Z,21.12
2023-05-23T15:52:18.057Z,20.79
2023-05-23T15:53:19.561Z,20.19
2023-05-23T15:54:21.550Z,20.09
2023-05-23T15:55:23.048Z,20.46
2023-05-23T15:56:24.536Z,20.48
2023-05-23T15:57:25.992Z,20.54
2023-05-23T15:58:27.622Z,21.12
2023-05-23T15:59:31.414Z,21.02
2023-05-23T16:00:32.963Z,20.63
2023-05-23T16:01:35.071Z,20.00
2023-05-23T16:02:36.680Z,19.90
2023-05-23T16:03:38.181Z,19.73
2023-05-23T16:04:39.751Z,19.31
2023-05-23T16:05:41.417Z,19.43
2023-05-23T16:06:43.177Z,19.00
2023-05-23T16:07:44.615Z,19.23
2023-05-23T16:08:46.155Z,19.49
2023-05-23T16:09:47.642Z,19.01
2023-05-23T16:10:49.225Z,18.76
2023-05-23T16:11:50.697Z,18.95
2023-05-23T16:54:19.182Z,17.42
2023-05-23T16:57:04.052Z,17.95
2023-05-23T16:58:05.560Z,17.97
2023-05-23T16:59:07.038Z,18.10
2023-05-23T17:00:10.644Z,18.16
2023-05-23T17:01:12.176Z,18.09
2023-05-23T17:02:15.987Z,18.14
2023-05-23T17:03:17.662Z,17.93
2023-05-23T17:04:20.521Z,18.06
2023-05-23T17:05:22.263Z,17.94
2023-05-23T17:06:23.853Z,17.70
2023-05-23T17:07:25.517Z,17.73
2023-05-23T17:08:26.970Z,17.84
2023-05-23T17:09:28.440Z,17.85
2023-05-23T17:13:55.510Z,17.49
2023-05-23T17:14:57.066Z,17.41
2023-05-23T17:18:52.536Z,17.24
2023-05-23T17:22:17.346Z,16.80
2023-05-23T17:25:42.584Z,16.82
